createdAt,value
2022-12-08T00:02:20.270Z,3.30
2022-12-08T00:05:41.406Z,3.35
2022-12-08T00:09:02.196Z,3.27
2022-12-08T00:12:06.028Z,3.26
2022-12-08T00:15:08.487Z,3.12
2022-12-08T00:18:10.777Z,3.28
2022-12-08T00:21:13.061Z,3.25
2022-12-08T00:24:15.416Z,3.17
2022-12-08T00:27:18.191Z,3.25
2022-12-08T00:30:20.889Z,3.40
2022-12-08T00:33:23.267Z,3.43
2022-12-08T00:36:25.641Z,3.21
2022-12-08T00:39:27.990Z,3.39
2022-12-08T00:42:30.293Z,3.09
2022-12-08T00:45:32.611Z,3.26
2022-12-08T00:48:35.104Z,3.35
2022-12-08T00:51:37.705Z,3.41
2022-12-08T00:54:39.970Z,3.57
2022-12-08T00:57:42.228Z,3.61
2022-12-08T01:00:44.654Z,3.45
2022-12-08T01:03:47.035Z,3.36
2022-12-08T01:06:49.603Z,2.98
2022-12-08T01:09:52.886Z,3.18
2022-12-08T01:12:55.142Z,2.86
2022-12-08T01:15:57.402Z,3.02
2022-12-08T01:19:01.161Z,3.12
2022-12-08T01:22:03.575Z,2.90
2022-12-08T01:25:06.815Z,3.02
2022-12-08T01:28:09.086Z,2.79
2022-12-08T01:31:21.430Z,2.84
2022-12-08T01:34:23.792Z,2.62
2022-12-08T01:37:26.086Z,2.68
2022-12-08T01:40:28.461Z,2.55
2022-12-08T01:44:09.482Z,2.68
2022-12-08T01:47:12.230Z,2.50
2022-12-08T01:50:16.305Z,2.61
2022-12-08T01:53:30.634Z,2.59
2022-12-08T01:56:38.033Z,2.55
2022-12-08T01:59:45.361Z,2.52
2022-12-08T02:02:56.960Z,2.51
2022-12-08T02:05:59.216Z,2.40
2022-12-08T02:09:02.051Z,2.47
2022-12-08T02:12:04.704Z,2.40
2022-12-08T02:15:07.578Z,2.29
2022-12-08T02:18:26.009Z,2.35
2022-12-08T02:21:47.046Z,2.55
2022-12-08T02:25:07.717Z,2.52
2022-12-08T02:28:26.906Z,2.44
2022-12-08T02:31:44.417Z,2.38
2022-12-08T02:35:08.713Z,2.35
2022-12-08T02:38:33.590Z,2.46
2022-12-08T02:41:49.580Z,2.45
2022-12-08T02:44:58.156Z,2.40
2022-12-08T02:48:00.758Z,2.47
2022-12-08T02:51:03.549Z,2.49
2022-12-08T02:54:06.523Z,2.59
2022-12-08T02:57:23.941Z,2.79
2022-12-08T03:00:30.116Z,2.66
2022-12-08T03:03:41.619Z,2.90
2022-12-08T03:06:52.983Z,2.79
2022-12-08T03:10:05.290Z,2.81
2022-12-08T03:13:16.919Z,2.86
2022-12-08T03:16:23.649Z,2.87
2022-12-08T03:19:33.280Z,2.88
2022-12-08T03:22:35.859Z,2.71
2022-12-08T03:25:47.093Z,2.83
2022-12-08T03:28:49.399Z,2.70
2022-12-08T03:31:58.118Z,2.68
2022-12-08T03:35:03.575Z,2.81
2022-12-08T03:38:10.795Z,2.88
2022-12-08T03:41:18.788Z,2.99
2022-12-08T03:44:21.083Z,2.96
2022-12-08T03:47:23.492Z,2.96
2022-12-08T03:50:25.962Z,3.02
2022-12-08T03:53:28.346Z,2.99
2022-12-08T03:56:33.337Z,2.98
2022-12-08T03:59:35.637Z,3.06
2022-12-08T04:02:37.983Z,3.21
2022-12-08T04:05:40.273Z,3.17
2022-12-08T04:08:42.627Z,3.20
2022-12-08T04:11:44.920Z,3.36
2022-12-08T04:14:47.797Z,3.43
2022-12-08T04:17:50.103Z,3.31
2022-12-08T04:20:53.334Z,3.35
2022-12-08T04:24:00.814Z,3.47
2022-12-08T04:27:03.815Z,3.44
2022-12-08T04:30:07.028Z,3.57
2022-12-08T04:33:09.698Z,3.50
2022-12-08T04:36:12.012Z,3.36
2022-12-08T04:39:14.399Z,3.39
2022-12-08T04:42:16.667Z,3.36
2022-12-08T04:45:19.237Z,3.42
2022-12-08T04:48:21.551Z,3.36
2022-12-08T04:51:23.908Z,3.42
2022-12-08T04:54:27.143Z,3.63
2022-12-08T04:57:29.560Z,3.48
2022-12-08T05:00:31.800Z,3.47
2022-12-08T05:03:34.518Z,3.42
2022-12-08T05:06:36.778Z,3.56
2022-12-08T05:09:39.219Z,3.59
2022-12-08T05:12:41.585Z,3.58
2022-12-08T05:15:44.128Z,3.53
2022-12-08T05:18:46.525Z,3.53
2022-12-08T05:21:48.926Z,3.36
2022-12-08T05:24:51.171Z,3.48
2022-12-08T05:28:06.152Z,3.47
2022-12-08T05:31:16.941Z,3.44
2022-12-08T05:34:19.355Z,3.48
2022-12-08T05:37:21.647Z,3.28
2022-12-08T05:40:23.907Z,3.19
2022-12-08T05:43:27.136Z,3.23
2022-12-08T05:46:29.673Z,3.46
2022-12-08T05:49:32.095Z,3.42
2022-12-08T05:52:34.446Z,3.56
2022-12-08T05:55:37.923Z,3.57
2022-12-08T05:58:40.305Z,3.49
2022-12-08T06:01:43.012Z,3.67
2022-12-08T06:04:45.527Z,3.71
2022-12-08T06:07:47.814Z,3.68
2022-12-08T06:10:50.301Z,3.65
2022-12-08T06:13:53.106Z,3.66
2022-12-08T06:16:55.512Z,3.78
2022-12-08T06:19:57.858Z,3.78
2022-12-08T06:23:00.271Z,3.79
2022-12-08T06:26:07.832Z,3.87
2022-12-08T06:29:10.510Z,3.96
2022-12-08T06:32:12.983Z,3.87
2022-12-08T06:35:15.387Z,3.95
2022-12-08T06:38:17.720Z,3.91
2022-12-08T06:41:20.103Z,4.01
2022-12-08T06:44:22.534Z,3.99
2022-12-08T06:47:26.422Z,4.16
2022-12-08T06:50:28.985Z,4.17
2022-12-08T06:53:31.271Z,4.23
2022-12-08T06:56:33.563Z,4.23
2022-12-08T06:59:35.793Z,4.36
2022-12-08T07:02:38.963Z,4.38
2022-12-08T07:05:41.897Z,4.11
2022-12-08T07:08:44.346Z,4.32
2022-12-08T07:11:46.714Z,4.33
2022-12-08T07:14:48.971Z,4.49
2022-12-08T07:17:56.293Z,4.56
2022-12-08T07:21:06.146Z,4.56
2022-12-08T07:24:08.660Z,4.61
2022-12-08T07:27:10.921Z,4.63
2022-12-08T07:30:13.918Z,4.62
2022-12-08T07:33:16.193Z,4.61
2022-12-08T07:36:18.856Z,4.57
2022-12-08T07:39:21.246Z,4.63
2022-12-08T07:42:23.496Z,4.60
2022-12-08T07:45:31.449Z,4.53
2022-12-08T07:48:34.457Z,4.63
2022-12-08T07:51:36.726Z,4.74
2022-12-08T07:54:39.198Z,4.86
2022-12-08T07:57:42.763Z,4.86
2022-12-08T08:00:45.120Z,4.86
2022-12-08T08:03:47.517Z,4.96
2022-12-08T08:06:50.043Z,5.25
2022-12-08T08:09:52.301Z,5.24
2022-12-08T08:12:54.927Z,5.36
2022-12-08T08:16:04.398Z,5.47
2022-12-08T08:19:06.795Z,5.65
2022-12-08T08:22:09.208Z,5.64
2022-12-08T08:25:11.499Z,5.65
2022-12-08T08:28:13.779Z,5.57
2022-12-08T08:31:16.576Z,5.67
2022-12-08T08:34:18.912Z,5.50
2022-12-08T08:37:21.199Z,5.75
2022-12-08T08:40:23.767Z,5.92
2022-12-08T08:43:32.947Z,6.04
2022-12-08T08:46:38.636Z,6.02
2022-12-08T08:49:41.144Z,6.19
2022-12-08T08:52:43.417Z,6.17
2022-12-08T08:55:45.684Z,6.29
2022-12-08T08:58:49.650Z,6.37
2022-12-08T09:01:52.070Z,6.47
2022-12-08T09:04:54.491Z,6.50
2022-12-08T09:07:56.819Z,6.36
2022-12-08T09:10:59.117Z,6.36
2022-12-08T09:14:01.488Z,6.36
2022-12-08T09:17:04.100Z,6.17
2022-12-08T09:20:07.723Z,6.36
2022-12-08T09:23:13.006Z,6.36
2022-12-08T09:26:15.464Z,6.43
2022-12-08T09:29:17.886Z,6.28
2022-12-08T09:32:20.385Z,6.25
2022-12-08T09:35:22.728Z,6.37
2022-12-08T09:38:25.005Z,6.38
2022-12-08T09:41:44.892Z,6.30
2022-12-08T09:44:57.344Z,6.49
2022-12-08T09:48:20.221Z,6.49
2022-12-08T09:51:27.910Z,6.46
2022-12-08T09:54:39.206Z,6.30
2022-12-08T09:57:41.622Z,6.32
2022-12-08T10:00:44.037Z,6.40
2022-12-08T10:04:06.723Z,6.40
2022-12-08T10:07:27.676Z,6.50
2022-12-08T10:10:38.750Z,6.53
2022-12-08T10:14:02.732Z,6.44
2022-12-08T10:17:14.896Z,6.39
2022-12-08T10:20:21.159Z,6.33
2022-12-08T10:23:26.710Z,6.38
2022-12-08T10:26:32.802Z,6.35
2022-12-08T10:29:35.064Z,6.37
2022-12-08T10:32:37.316Z,6.40
2022-12-08T10:36:00.616Z,6.36
2022-12-08T10:39:02.913Z,6.46
2022-12-08T10:42:09.915Z,6.61
2022-12-08T10:45:18.111Z,6.62
2022-12-08T10:48:23.118Z,6.47
2022-12-08T10:51:28.607Z,6.45
2022-12-08T10:54:37.404Z,6.42
2022-12-08T10:57:39.683Z,6.36
2022-12-08T11:00:42.033Z,6.36
2022-12-08T11:03:51.545Z,6.39
2022-12-08T11:06:53.879Z,6.19
2022-12-08T11:09:58.316Z,6.18
2022-12-08T11:13:02.613Z,6.25
2022-12-08T11:16:06.256Z,6.11
2022-12-08T11:19:15.002Z,6.13
2022-12-08T11:22:29.338Z,6.05
2022-12-08T11:25:31.539Z,6.08
2022-12-08T11:28:33.891Z,5.93
2022-12-08T11:32:03.035Z,5.85
2022-12-08T11:35:07.029Z,5.92
2022-12-08T11:38:21.919Z,5.85
2022-12-08T11:41:29.032Z,5.61
2022-12-08T11:44:36.075Z,5.70
2022-12-08T11:47:55.830Z,5.72
2022-12-08T11:51:06.237Z,5.84
2022-12-08T11:54:31.198Z,5.90
2022-12-08T11:57:33.503Z,5.75
2022-12-08T12:00:35.873Z,5.69
2022-12-08T12:03:45.012Z,5.81
2022-12-08T12:06:55.806Z,5.91
2022-12-08T12:10:20.937Z,5.93
2022-12-08T12:13:32.098Z,5.84
2022-12-08T12:16:37.298Z,5.95
2022-12-08T12:19:40.214Z,5.91
2022-12-08T12:22:44.833Z,5.98
2022-12-08T12:26:02.883Z,6.02
2022-12-08T12:29:16.846Z,6.02
2022-12-08T12:32:19.268Z,6.19
2022-12-08T12:35:27.817Z,6.22
2022-12-08T12:38:55.965Z,6.19
2022-12-08T12:42:05.649Z,6.21
2022-12-08T12:45:32.502Z,6.25
2022-12-08T12:48:34.804Z,6.21
2022-12-08T12:51:45.024Z,6.33
2022-12-08T12:54:50.189Z,6.24
2022-12-08T12:57:58.458Z,6.10
2022-12-08T13:01:12.955Z,6.16
2022-12-08T13:04:16.341Z,6.18
2022-12-08T13:07:23.731Z,6.09
2022-12-08T13:10:29.193Z,6.03
2022-12-08T13:13:31.656Z,6.07
2022-12-08T13:16:40.362Z,6.06
2022-12-08T13:19:47.533Z,6.09
2022-12-08T13:22:53.707Z,6.25
2022-12-08T13:26:23.549Z,6.26
2022-12-08T13:29:26.534Z,6.31
2022-12-08T13:32:29.334Z,6.27
2022-12-08T13:35:36.840Z,6.31
2022-12-08T13:38:39.422Z,6.28
2022-12-08T13:41:44.923Z,6.51
2022-12-08T13:45:59.217Z,6.60
2022-12-08T13:50:42.713Z,6.60
2022-12-08T13:59:07.158Z,6.49
2022-12-08T14:02:39.530Z,6.43
2022-12-08T14:09:12.155Z,6.03
2022-12-08T14:12:21.781Z,5.96
2022-12-08T14:15:25.612Z,6.10
2022-12-08T14:18:31.859Z,6.12
2022-12-08T14:21:36.224Z,6.29
2022-12-08T14:24:40.018Z,6.33
2022-12-08T14:27:42.931Z,6.40
2022-12-08T14:30:45.332Z,6.34
2022-12-08T14:33:51.788Z,6.38
2022-12-08T14:36:58.160Z,6.25
2022-12-08T14:40:06.786Z,6.32
2022-12-08T14:43:09.256Z,6.36
2022-12-08T14:46:22.695Z,6.59
2022-12-08T14:49:51.748Z,6.59
2022-12-08T14:52:54.031Z,6.50
2022-12-08T14:55:56.354Z,6.54
2022-12-08T14:59:03.303Z,6.47
2022-12-08T15:03:16.958Z,6.14
2022-12-08T15:06:22.756Z,6.18
2022-12-08T15:09:32.806Z,6.04
2022-12-08T15:12:35.144Z,5.97
2022-12-08T15:15:51.089Z,5.97
2022-12-08T15:19:02.791Z,5.84
2022-12-08T15:22:14.096Z,5.64
2022-12-08T15:25:16.431Z,5.61
2022-12-08T15:28:24.040Z,5.54
2022-12-08T15:31:28.923Z,5.49
2022-12-08T15:34:31.729Z,5.50
2022-12-08T15:37:33.993Z,5.45
2022-12-08T15:40:36.244Z,5.50
2022-12-08T15:43:38.511Z,5.38
2022-12-08T15:46:40.801Z,5.45
2022-12-08T15:49:43.363Z,5.39
2022-12-08T15:52:45.726Z,5.37
2022-12-08T15:56:10.876Z,5.42
2022-12-08T15:59:15.712Z,5.26
2022-12-08T16:02:22.511Z,5.43
2022-12-08T16:05:44.295Z,5.28
2022-12-08T16:08:56.095Z,5.22
2022-12-08T16:13:48.168Z,5.41
2022-12-08T16:16:19.677Z,5.42
2022-12-08T16:19:21.985Z,5.40
2022-12-08T16:26:17.141Z,5.22
2022-12-08T16:29:18.524Z,5.27
2022-12-08T16:32:20.926Z,5.22
2022-12-08T16:35:23.206Z,5.14
2022-12-08T16:38:25.464Z,4.97
2022-12-08T16:41:46.376Z,5.02
2022-12-08T16:44:48.651Z,5.09
2022-12-08T16:47:56.465Z,5.19
2022-12-08T16:50:58.799Z,5.18
2022-12-08T16:54:01.120Z,5.14
2022-12-08T16:57:03.374Z,5.12
2022-12-08T17:00:07.702Z,5.14
2022-12-08T17:03:11.810Z,5.12
2022-12-08T17:06:18.077Z,5.15
2022-12-08T17:09:20.466Z,5.23
2022-12-08T17:12:22.769Z,5.19
2022-12-08T17:15:25.835Z,5.15
2022-12-08T17:18:28.124Z,5.21
2022-12-08T17:21:30.499Z,5.25
2022-12-08T17:24:32.771Z,5.21
2022-12-08T17:27:36.112Z,5.24
2022-12-08T17:30:38.771Z,5.13
2022-12-08T17:33:41.286Z,5.12
2022-12-08T17:36:43.593Z,5.13
2022-12-08T17:39:45.971Z,5.07
2022-12-08T17:42:48.249Z,5.14
2022-12-08T17:45:50.560Z,5.25
2022-12-08T17:48:53.619Z,5.35
2022-12-08T17:51:58.679Z,5.24
2022-12-08T17:55:00.960Z,5.38
2022-12-08T17:58:04.424Z,5.36
2022-12-08T18:01:10.827Z,5.39
2022-12-08T18:04:13.575Z,5.45
2022-12-08T18:07:18.031Z,5.41
2022-12-08T18:10:20.547Z,5.43
2022-12-08T18:13:22.780Z,5.51
2022-12-08T18:16:26.662Z,5.41
2022-12-08T18:19:29.006Z,5.40
2022-12-08T18:22:31.226Z,5.48
2022-12-08T18:25:33.478Z,5.17
2022-12-08T18:28:36.720Z,5.17
2022-12-08T18:31:39.038Z,5.17
2022-12-08T18:34:41.462Z,4.93
2022-12-08T18:37:43.798Z,5.03
2022-12-08T18:40:46.107Z,5.21
2022-12-08T18:43:48.426Z,4.99
2022-12-08T18:46:51.005Z,5.22
2022-12-08T18:49:53.369Z,5.16
2022-12-08T18:52:55.641Z,5.04
2022-12-08T18:55:57.895Z,4.95
2022-12-08T18:59:03.925Z,4.89
2022-12-08T19:02:06.619Z,5.08
2022-12-08T19:05:10.613Z,4.96
2022-12-08T19:08:13.091Z,4.95
2022-12-08T19:11:20.477Z,4.87
2022-12-08T19:14:27.771Z,4.85
2022-12-08T19:17:31.139Z,4.86
2022-12-08T19:20:33.523Z,4.85
2022-12-08T19:23:35.879Z,4.85
2022-12-08T19:26:38.770Z,5.08
2022-12-08T19:29:41.051Z,4.98
2022-12-08T19:32:43.357Z,5.12
2022-12-08T19:35:52.192Z,5.19
2022-12-08T19:39:14.322Z,4.94
2022-12-08T19:42:37.571Z,4.90
2022-12-08T19:45:39.969Z,4.89
2022-12-08T19:48:42.396Z,4.79
2022-12-08T19:51:44.867Z,4.87
2022-12-08T19:54:47.470Z,4.85
2022-12-08T19:57:50.968Z,5.04
2022-12-08T20:00:53.437Z,4.93
2022-12-08T20:03:55.793Z,5.02
2022-12-08T20:06:58.172Z,4.91
2022-12-08T20:10:00.726Z,5.08
2022-12-08T20:13:22.086Z,5.11
2022-12-08T20:16:24.538Z,5.11
2022-12-08T20:19:27.424Z,5.12
2022-12-08T20:22:32.120Z,4.94
2022-12-08T20:25:35.000Z,5.06
2022-12-08T20:28:37.819Z,5.12
2022-12-08T20:31:40.132Z,4.95
2022-12-08T20:34:42.437Z,4.97
2022-12-08T20:37:44.737Z,4.91
2022-12-08T20:40:47.614Z,5.03
2022-12-08T20:43:50.607Z,4.99
2022-12-08T20:46:53.320Z,4.92
2022-12-08T20:49:55.740Z,4.94
2022-12-08T20:52:58.558Z,4.94
2022-12-08T20:56:02.942Z,5.03
2022-12-08T20:59:05.885Z,5.04
2022-12-08T21:02:10.645Z,4.88
2022-12-08T21:05:13.272Z,5.02
2022-12-08T21:08:15.908Z,4.94
2022-12-08T21:11:18.667Z,5.06
2022-12-08T21:14:21.124Z,5.14
2022-12-08T21:17:23.724Z,5.11
2022-12-08T21:20:26.274Z,5.12
2022-12-08T21:23:28.946Z,5.14
2022-12-08T21:26:31.827Z,5.10
2022-12-08T21:29:34.330Z,5.09
2022-12-08T21:32:39.148Z,5.06
2022-12-08T21:35:41.591Z,4.97
2022-12-08T21:38:44.594Z,4.97
2022-12-08T21:42:05.923Z,4.96
2022-12-08T21:45:09.032Z,4.97
2022-12-08T21:48:12.197Z,4.96
2022-12-08T21:51:14.861Z,5.01
2022-12-08T21:54:19.284Z,4.99
2022-12-08T21:57:21.926Z,4.84
2022-12-08T22:00:24.770Z,4.94
2022-12-08T22:03:28.501Z,4.90
2022-12-08T22:06:31.044Z,5.09
2022-12-08T22:09:33.522Z,5.01
2022-12-08T22:12:37.168Z,5.17
2022-12-08T22:15:39.616Z,5.05
2022-12-08T22:18:42.606Z,5.05
2022-12-08T22:21:45.200Z,5.04
2022-12-08T22:24:47.887Z,5.04
2022-12-08T22:27:50.163Z,4.89
2022-12-08T22:30:52.611Z,4.89
2022-12-08T22:33:55.112Z,5.13
2022-12-08T22:36:57.633Z,5.08
2022-12-08T22:40:00.173Z,5.13
2022-12-08T22:43:02.530Z,5.04
2022-12-08T22:46:14.999Z,5.06
2022-12-08T22:49:17.297Z,5.01
2022-12-08T22:52:19.593Z,5.06
2022-12-08T22:55:21.873Z,5.15
2022-12-08T22:58:24.319Z,5.18
2022-12-08T23:01:29.594Z,5.11
2022-12-08T23:04:32.088Z,5.13
2022-12-08T23:07:34.555Z,5.11
2022-12-08T23:10:36.937Z,4.93
2022-12-08T23:13:42.263Z,5.03
2022-12-08T23:16:44.719Z,5.04
2022-12-08T23:19:47.349Z,5.05
2022-12-08T23:22:49.742Z,5.08
2022-12-08T23:25:52.283Z,5.08
2022-12-08T23:28:55.476Z,4.97
2022-12-08T23:31:58.382Z,5.01
2022-12-08T23:35:00.882Z,5.01
2022-12-08T23:38:03.335Z,5.03
2022-12-08T23:41:07.856Z,5.04
2022-12-08T23:44:12.418Z,5.01
2022-12-08T23:47:14.855Z,4.96
2022-12-08T23:50:17.295Z,4.85
2022-12-08T23:53:19.584Z,4.79
2022-12-08T23:56:24.335Z,4.86
2022-12-08T23:59:31.097Z,4.76
